TimeCST,TemperatureF,Dew PointF,Humidity,Sea Level PressureIn,VisibilityMPH,Wind Direction,Wind SpeedMPH,Gust SpeedMPH,PrecipitationIn,Events,Conditions,WindDirDegrees,DateUTC
12:15 AM,60.8,48.2,63,29.76,10.0,ESE,10.4,-,N/A,,Overcast,120,2013-02-25 06:15:00
12:35 AM,60.8,50.0,68,29.75,10.0,ESE,9.2,-,N/A,,Overcast,120,2013-02-25 06:35:00
12:55 AM,59.0,51.8,77,29.74,10.0,ESE,8.1,-,N/A,,Overcast,110,2013-02-25 06:55:00
1:15 AM,59.0,51.8,77,29.74,10.0,ESE,8.1,-,N/A,,Overcast,110,2013-02-25 07:15:00
1:35 AM,59.0,51.8,77,29.73,10.0,East,8.1,-,N/A,,Overcast,90,2013-02-25 07:35:00
1:55 AM,59.0,51.8,77,29.70,10.0,East,9.2,-,N/A,,Overcast,90,2013-02-25 07:55:00
2:15 AM,57.2,51.8,82,29.70,10.0,ESE,9.2,-,N/A,,Overcast,120,2013-02-25 08:15:00
2:35 AM,57.2,51.8,82,29.70,10.0,East,4.6,-,N/A,,Overcast,80,2013-02-25 08:35:00
2:55 AM,57.2,51.8,82,29.70,10.0,ESE,5.8,-,N/A,,Overcast,110,2013-02-25 08:55:00
3:15 AM,57.2,51.8,82,29.68,10.0,ESE,8.1,-,N/A,,Overcast,110,2013-02-25 09:15:00
3:35 AM,57.2,51.8,82,29.68,9.0,East,5.8,-,N/A,,Overcast,80,2013-02-25 09:35:00
3:55 AM,57.2,53.6,88,29.68,10.0,Calm,Calm,-,N/A,,Overcast,0,2013-02-25 09:55:00
4:15 AM,57.2,53.6,88,29.67,10.0,ESE,6.9,-,N/A,,Overcast,110,2013-02-25 10:15:00
4:35 AM,57.2,53.6,88,29.67,10.0,ESE,6.9,-,N/A,,Overcast,110,2013-02-25 10:35:00
4:55 AM,57.2,53.6,88,29.67,10.0,East,6.9,-,N/A,,Overcast,100,2013-02-25 10:55:00
5:15 AM,57.2,53.6,88,29.68,7.0,East,5.8,-,N/A,,Overcast,100,2013-02-25 11:15:00
5:35 AM,57.2,53.6,88,29.67,3.0,ESE,4.6,-,N/A,,Overcast,110,2013-02-25 11:35:00
5:55 AM,57.2,55.4,94,29.68,3.0,ESE,6.9,-,N/A,,Overcast,120,2013-02-25 11:55:00
6:15 AM,57.2,55.4,94,29.68,2.0,SE,8.1,-,N/A,,Overcast,130,2013-02-25 12:15:00
6:35 AM,57.2,55.4,94,29.68,5.0,SSE,6.9,-,N/A,,Overcast,150,2013-02-25 12:35:00
6:55 AM,57.2,55.4,94,29.68,8.0,SE,10.4,-,N/A,,Overcast,130,2013-02-25 12:55:00
7:15 AM,57.2,55.4,94,29.68,10.0,SE,8.1,-,N/A,,Overcast,130,2013-02-25 13:15:00
7:35 AM,59.0,55.4,88,29.68,10.0,SE,11.5,-,N/A,,Overcast,130,2013-02-25 13:35:00
7:55 AM,59.0,57.2,94,29.68,10.0,SE,9.2,16.1,N/A,,Overcast,140,2013-02-25 13:55:00
8:15 AM,60.8,57.2,88,29.69,10.0,SE,10.4,17.3,N/A,,Overcast,140,2013-02-25 14:15:00
8:35 AM,62.6,57.2,82,29.69,10.0,SE,11.5,20.7,N/A,,Overcast,140,2013-02-25 14:35:00
8:55 AM,62.6,57.2,82,29.69,10.0,SSE,13.8,-,N/A,,Overcast,150,2013-02-25 14:55:00
9:15 AM,64.4,57.2,77,29.69,10.0,SE,13.8,-,N/A,,Overcast,140,2013-02-25 15:15:00
9:35 AM,64.4,57.2,77,29.70,10.0,SE,13.8,-,N/A,,Overcast,140,2013-02-25 15:35:00
9:55 AM,64.4,59.0,83,29.68,10.0,SSE,11.5,20.7,N/A,,Overcast,150,2013-02-25 15:55:00
10:15 AM,69.8,60.8,73,29.69,10.0,SSE,13.8,20.7,N/A,,Mostly Cloudy,150,2013-02-25 16:15:00
10:35 AM,68.0,60.8,78,29.68,10.0,SSE,16.1,20.7,N/A,,Mostly Cloudy,160,2013-02-25 16:35:00
11:15 AM,69.8,60.8,73,29.66,10.0,SE,16.1,-,N/A,,Mostly Cloudy,140,2013-02-25 17:15:00
11:35 AM,69.8,60.8,73,29.64,10.0,SSE,13.8,19.6,N/A,,Overcast,150,2013-02-25 17:35:00
11:55 AM,68.0,60.8,78,29.64,10.0,SE,12.7,-,N/A,,Overcast,140,2013-02-25 17:55:00
12:15 PM,69.8,60.8,73,29.61,10.0,SE,13.8,-,N/A,,Overcast,140,2013-02-25 18:15:00
12:35 PM,68.0,60.8,78,29.60,10.0,SE,13.8,-,N/A,,Overcast,140,2013-02-25 18:35:00
12:55 PM,66.2,60.8,83,29.57,10.0,SE,15.0,-,N/A,,Overcast,130,2013-02-25 18:55:00
1:15 PM,64.4,60.8,88,29.55,10.0,SE,15.0,28.8,0.01,Thunderstorm,Overcast,130,2013-02-25 19:15:00
1:35 PM,64.4,60.8,88,29.54,10.0,East,6.9,-,0.06,Thunderstorm,Thunderstorm,100,2013-02-25 19:35:00
1:55 PM,64.4,60.8,88,29.51,10.0,SE,10.4,-,0.06,Thunderstorm,Overcast,130,2013-02-25 19:55:00
2:15 PM,64.4,60.8,88,29.52,10.0,SE,12.7,24.2,0.01,,Overcast,130,2013-02-25 20:15:00
2:35 PM,64.4,60.8,88,29.51,9.0,SE,18.4,25.3,0.04,Thunderstorm,Overcast,130,2013-02-25 20:35:00
2:55 PM,64.4,60.8,88,29.48,7.0,ESE,10.4,-,0.23,Thunderstorm,Thunderstorm,110,2013-02-25 20:55:00
3:15 PM,64.4,60.8,88,29.44,10.0,East,6.9,-,N/A,,Mostly Cloudy,100,2013-02-25 21:15:00
3:35 PM,64.4,60.8,88,29.46,10.0,SE,11.5,-,N/A,,Mostly Cloudy,140,2013-02-25 21:35:00
3:55 PM,64.4,62.6,94,29.46,10.0,SSE,18.4,23.0,N/A,Thunderstorm,Overcast,150,2013-02-25 21:55:00
4:15 PM,64.4,60.8,88,29.44,10.0,SE,20.7,29.9,0.01,,Overcast,130,2013-02-25 22:15:00
4:35 PM,64.4,60.8,88,29.42,10.0,SE,20.7,27.6,0.01,,Mostly Cloudy,140,2013-02-25 22:35:00
4:55 PM,62.6,59.0,88,29.42,10.0,SE,19.6,27.6,0.01,,Overcast,140,2013-02-25 22:55:00
5:15 PM,62.6,59.0,88,29.42,10.0,SSE,18.4,27.6,0.03,,Overcast,150,2013-02-25 23:15:00
5:35 PM,62.6,59.0,88,29.40,10.0,SSE,20.7,28.8,0.03,,Mostly Cloudy,150,2013-02-25 23:35:00
5:55 PM,62.6,59.0,88,29.41,10.0,SE,20.7,26.5,0.03,,Overcast,140,2013-02-25 23:55:00
6:15 PM,62.6,59.0,88,29.42,9.0,SSE,20.7,28.8,0.03,,Mostly Cloudy,150,2013-02-26 00:15:00
6:35 PM,62.6,59.0,88,29.43,10.0,SSE,12.7,-,0.09,,Overcast,160,2013-02-26 00:35:00
6:55 PM,62.6,60.8,94,29.45,9.0,South,13.8,19.6,0.14,,Overcast,180,2013-02-26 00:55:00
7:15 PM,62.6,59.0,88,29.46,10.0,SSW,9.2,-,N/A,,Overcast,210,2013-02-26 01:15:00
7:35 PM,62.6,59.0,88,29.46,10.0,South,8.1,-,N/A,,Overcast,180,2013-02-26 01:35:00
8:15 PM,60.8,57.2,88,29.45,10.0,South,4.6,-,N/A,,Partly Cloudy,190,2013-02-26 02:15:00
8:55 PM,60.8,57.2,88,29.46,10.0,SSW,3.5,-,N/A,,Clear,210,2013-02-26 02:55:00
9:15 PM,60.8,55.4,82,29.49,10.0,West,11.5,24.2,N/A,,Mostly Cloudy,260,2013-02-26 03:15:00
9:35 PM,59.0,44.6,59,29.50,10.0,West,12.7,18.4,N/A,,Overcast,280,2013-02-26 03:35:00
9:55 PM,57.2,42.8,59,29.50,10.0,West,9.2,-,N/A,,Mostly Cloudy,260,2013-02-26 03:55:00
10:15 PM,57.2,41.0,55,29.51,10.0,West,10.4,17.3,N/A,,Mostly Cloudy,260,2013-02-26 04:15:00
10:35 PM,55.4,39.2,54,29.52,10.0,West,12.7,16.1,N/A,,Clear,260,2013-02-26 04:35:00
10:55 PM,55.4,35.6,47,29.53,10.0,West,11.5,19.6,N/A,,Clear,270,2013-02-26 04:55:00
11:15 PM,53.6,35.6,51,29.54,10.0,SW,8.1,-,N/A,,Clear,230,2013-02-26 05:15:00
11:35 PM,53.6,35.6,51,29.54,10.0,WSW,11.5,19.6,N/A,,Clear,250,2013-02-26 05:35:00
11:55 PM,51.8,35.6,54,29.55,10.0,WSW,13.8,20.7,N/A,,Clear,250,2013-02-26 05:55:00